Latest Weather Observations for Eildon Fire Tower

IDV60801

Issued at 5:32 pm EST Sunday 23 April 2017 (issued every 30 minutes, with the page automatically refreshed every 10 minutes)

About weather observations | Map of weather stations | Latest weather observations for VIC | Other Formats
Station Details ID: 088164 Name: EILDON FIRE TOWER Lat: -37.21 Lon: 145.84 Height: 637.0 m
Data from the previous 72 hours. | See also: Recent months at Eildon Fire Tower
Date/Time
EST
Temp
°C
App
Temp
°C
Dew
Point
°C
Rel
Hum
%
Delta-T
°C
Wind Press
QNH
hPa
Press
MSL
hPa
Rain since
9am
mm
Dir  Spd
km/h
Gust
km/h
Spd
kts
Gust
kts
23/05:30pm 16.9 15.3 10.1 64 3.7 WSW 9 11 5 6 - - 0.0
23/05:00pm 18.4 16.9 10.5 60 4.4 WSW 9 15 5 8 - - 0.0
23/04:30pm 19.4 18.3 10.7 57 4.9 W 7 11 4 6 - - 0.0
23/04:00pm 19.5 18.3 9.7 53 5.4 W 6 9 3 5 - - 0.0
23/03:30pm 19.7 18.9 10.9 57 4.9 WSW 6 7 3 4 - - 0.0
23/03:00pm 19.7 19.0 12.0 61 4.4 W 7 9 4 5 - - 0.0
23/02:30pm 18.9 19.0 12.6 67 3.6 WNW 4 9 2 5 - - 0.0
23/02:00pm 18.3 18.1 11.8 66 3.7 W 4 9 2 5 - - 0.0
23/01:30pm 17.5 16.8 13.2 76 2.5 W 9 15 5 8 - - 0.0
23/01:00pm 17.0 17.0 14.1 83 1.7 W 7 11 4 6 - - 0.0
23/12:30pm 16.6 16.8 14.6 88 1.2 SW 7 9 4 5 - - 0.0
23/12:00pm 15.6 16.0 13.8 89 1.0 SSW 4 6 2 3 - - 0.0
23/11:30am 14.9 15.9 14.3 96 0.4 WNW 2 6 1 3 - - 0.0
23/11:00am 14.3 15.1 13.8 97 0.3 NNE 2 6 1 3 - - 0.0
23/10:30am 14.0 14.4 13.7 98 0.2 SW 4 6 2 3 - - 0.0
23/10:00am 13.4 13.2 13.1 98 0.2 SW 6 7 3 4 - - 0.0
23/09:30am 13.4 13.6 13.1 98 0.2 SW 4 6 2 3 - - 0.0
23/09:00am 13.6 13.9 13.3 98 0.2 E 4 9 2 5 - - 0.2
23/08:30am 12.6 12.0 12.3 98 0.2 ENE 7 11 4 6 - - 0.2
23/08:00am 12.6 12.0 12.3 98 0.2 ENE 7 11 4 6 - - 0.2
23/07:30am 12.2 11.5 11.9 98 0.2 E 7 9 4 5 - - 0.2
23/07:00am 12.5 11.9 12.2 98 0.2 E 7 9 4 5 - - 0.2
23/06:30am 12.6 12.2 12.3 98 0.2 ENE 6 9 3 5 - - 0.2
23/06:00am 12.7 12.6 12.2 97 0.3 ENE 4 6 2 3 - - 0.0
23/05:30am 12.5 12.4 12.0 97 0.3 E 4 4 2 2 - - 0.0
23/05:00am 12.5 12.7 12.0 97 0.3 NNE 2 4 1 2 - - 0.0
23/04:30am 12.7 12.6 12.2 97 0.3 NNE 4 4 2 2 - - 0.0
23/04:00am 12.8 12.4 12.3 97 0.3 NNE 6 6 3 3 - - 0.0
23/03:30am 13.2 13.3 12.7 97 0.3 NNE 4 6 2 3 - - 0.0
23/03:00am 13.2 13.7 12.7 97 0.3 NNE 2 4 1 2 - - 0.0
23/02:30am 13.1 13.1 12.5 96 0.3 NNE 4 6 2 3 - - 0.0
23/02:00am 13.4 13.5 12.8 96 0.3 NNE 4 6 2 3 - - 0.0
23/01:30am 13.6 13.8 13.0 96 0.3 NNE 4 6 2 3 - - 0.0
23/01:00am 13.5 13.7 13.0 97 0.3 NNE 4 6 2 3 - - 0.0
23/12:30am 13.6 13.8 13.1 97 0.3 NNE 4 4 2 2 - - 0.0
23/12:00am 13.6 13.8 13.1 97 0.3 NNE 4 6 2 3 - - 0.0
 
Date/Time
EST
Temp
°C
App
Temp
°C
Dew
Point
°C
Rel
Hum
%
Delta-T
°C
Wind Press
QNH
hPa
Press
MSL
hPa
Rain since
9am
mm
Dir  Spd
km/h
Gust
km/h
Spd
kts
Gust
kts
22/11:30pm 13.5 13.3 13.0 97 0.3 NNE 6 7 3 4 - - 0.0
22/11:00pm 13.4 12.9 12.8 96 0.3 NNE 7 7 4 4 - - 0.0
22/10:30pm 13.6 13.2 13.0 96 0.3 NNE 7 7 4 4 - - 0.0
22/10:00pm 13.7 13.0 13.1 96 0.3 NNE 9 9 5 5 - - 0.0
22/09:30pm 13.8 13.4 13.0 95 0.5 ENE 7 9 4 5 - - 0.0
22/09:00pm 14.1 13.9 13.0 93 0.6 NE 6 6 3 3 - - 0.0
22/08:30pm 14.2 13.5 13.2 94 0.6 NE 9 11 5 6 - - 0.0
22/08:00pm 14.0 13.3 13.2 95 0.5 NE 9 11 5 6 - - 0.0
22/07:30pm 14.0 13.3 13.2 95 0.5 NE 9 11 5 6 - - 0.0
22/07:00pm 14.1 13.4 13.1 94 0.6 NE 9 11 5 6 - - 0.0
22/06:30pm 14.2 13.9 13.2 94 0.6 NE 7 11 4 6 - - 0.0
22/06:00pm 14.4 13.7 13.3 93 0.6 NE 9 11 5 6 - - 0.0
22/05:30pm 14.5 13.8 13.2 92 0.7 NE 9 11 5 6 - - 0.0
22/05:00pm 14.8 14.5 13.2 90 0.9 NE 7 9 4 5 - - 0.0
22/04:30pm 15.0 14.7 13.2 89 1.0 NE 7 11 4 6 - - 0.0
22/04:00pm 15.3 14.9 13.0 86 1.3 NE 7 11 4 6 - - 0.0
22/03:30pm 15.2 14.6 13.6 90 0.9 NE 9 13 5 7 - - 0.0
22/03:00pm 15.4 14.9 13.9 91 0.9 NE 9 15 5 8 - - 0.0
22/02:30pm 14.9 14.6 13.4 91 0.9 ENE 7 11 4 6 - - 0.0
22/02:00pm 14.6 14.6 13.6 94 0.6 NNE 6 7 3 4 - - 0.0
22/01:30pm 14.5 14.3 13.7 95 0.5 NE 7 9 4 5 - - 0.0
22/01:00pm 14.2 13.6 13.4 95 0.5 NE 9 13 5 7 - - 0.0
22/12:30pm 14.3 14.1 13.7 96 0.3 NE 7 11 4 6 - - 0.0
22/12:00pm 14.0 14.0 13.5 97 0.3 NE 6 7 3 4 - - 0.0
22/11:30am 13.9 14.2 13.4 97 0.3 NNE 4 11 2 6 - - 0.0
22/11:00am 13.6 13.5 13.3 98 0.2 NE 6 9 3 5 - - 0.0
22/10:30am 13.5 13.7 13.2 98 0.2 NNE 4 7 2 4 - - 0.0
22/10:00am 13.2 13.0 12.9 98 0.2 NNE 6 9 3 5 - - 0.0
22/09:30am 13.2 12.4 12.9 98 0.2 NNE 9 13 5 7 - - 0.0
22/09:00am 12.7 10.6 12.4 98 0.2 NE 15 20 8 11 - - 17.4
22/08:30am 12.6 10.9 12.3 98 0.2 NNE 13 19 7 10 - - 17.4
22/08:00am 12.6 10.5 12.3 98 0.2 NNE 15 20 8 11 - - 17.4
22/07:30am 12.4 10.2 12.1 98 0.2 NE 15 20 8 11 - - 17.4
22/07:00am 12.3 10.1 12.0 98 0.2 NE 15 19 8 10 - - 17.4
22/06:30am 12.3 10.8 12.0 98 0.2 NE 11 15 6 8 - - 17.4
22/06:00am 12.2 10.3 11.9 98 0.2 NE 13 17 7 9 - - 17.4
22/05:30am 12.2 11.1 11.9 98 0.2 NE 9 13 5 7 - - 17.4
22/05:00am 12.3 10.8 12.0 98 0.2 NNE 11 17 6 9 - - 17.4
22/04:30am 12.4 11.0 12.1 98 0.2 NNE 11 17 6 9 - - 17.4
22/04:00am 12.4 11.0 12.1 98 0.2 NE 11 15 6 8 - - 17.4
22/03:30am 12.4 11.3 12.1 98 0.2 NNE 9 13 5 7 - - 17.2
22/03:00am 12.3 10.5 12.0 98 0.2 NE 13 17 7 9 - - 17.2
22/02:30am 12.3 10.8 12.0 98 0.2 NE 11 17 6 9 - - 17.2
22/02:00am 12.3 11.2 12.0 98 0.2 NE 9 15 5 8 - - 17.2
22/01:30am 12.3 10.5 12.0 98 0.2 NE 13 19 7 10 - - 17.0
22/01:00am 12.3 10.8 12.0 98 0.2 NE 11 17 6 9 - - 17.0
22/12:30am 12.4 10.2 12.1 98 0.2 NE 15 20 8 11 - - 17.0
22/12:00am 12.5 9.6 12.2 98 0.2 NE 19 24 10 13 - - 16.8
 
Date/Time
EST
Temp
°C
App
Temp
°C
Dew
Point
°C
Rel
Hum
%
Delta-T
°C
Wind Press
QNH
hPa
Press
MSL
hPa
Rain since
9am
mm
Dir  Spd
km/h
Gust
km/h
Spd
kts
Gust
kts
21/11:30pm 12.6 10.1 12.3 98 0.2 NE 17 20 9 11 - - 16.8
21/11:00pm 12.7 11.4 12.4 98 0.2 NE 11 15 6 8 - - 16.8
21/10:30pm 12.7 11.4 12.4 98 0.2 NNE 11 17 6 9 - - 16.8
21/10:00pm 12.7 11.4 12.4 98 0.2 NNE 11 20 6 11 - - 16.8
21/09:30pm 12.6 10.5 12.3 98 0.2 NNE 15 22 8 12 - - 16.6
21/09:00pm 12.6 11.2 12.3 98 0.2 NNE 11 22 6 12 - - 16.6
21/08:30pm 12.6 10.1 12.3 98 0.2 NNE 17 30 9 16 - - 16.6
21/08:00pm 12.6 10.1 12.3 98 0.2 NE 17 24 9 13 - - 16.6
21/07:30pm 12.7 9.7 12.4 98 0.2 NE 20 28 11 15 - - 16.6
21/07:00pm 12.6 10.5 12.3 98 0.2 NNE 15 26 8 14 - - 16.6
21/06:30pm 12.6 10.5 12.3 98 0.2 NE 15 28 8 15 - - 16.6
21/06:00pm 12.8 11.1 12.5 98 0.2 NE 13 22 7 12 - - 15.6
21/05:30pm 12.9 11.2 12.6 98 0.2 NE 13 20 7 11 - - 13.8
21/05:00pm 12.9 10.5 12.6 98 0.2 NE 17 28 9 15 - - 12.0
21/04:30pm 12.8 10.0 12.5 98 0.2 NNE 19 30 10 16 - - 10.8
21/04:00pm 12.7 9.3 12.4 98 0.2 NE 22 44 12 24 - - 9.6
21/03:30pm 12.8 9.8 12.5 98 0.2 NNE 20 33 11 18 - - 8.6
21/03:00pm 12.7 8.9 12.4 98 0.2 NE 24 35 13 19 - - 8.2
21/02:30pm 12.7 7.8 12.4 98 0.2 NE 30 48 16 26 - - 7.6
21/02:15pm 12.7 7.8 12.4 98 0.2 NE 30 63 16 34 - - 7.4
21/02:00pm 12.8 9.4 12.5 98 0.2 NE 22 32 12 17 - - 7.4
21/01:30pm 12.6 8.8 12.3 98 0.2 NE 24 37 13 20 - - 7.2
21/01:00pm 12.6 7.6 12.3 98 0.2 NE 30 43 16 23 - - 7.2
21/12:30pm 12.7 8.5 12.4 98 0.2 NE 26 43 14 23 - - 6.6
21/12:00pm 12.7 8.9 12.4 98 0.2 NE 24 37 13 20 - - 4.6
21/11:30am 12.6 8.0 12.3 98 0.2 NE 28 44 15 24 - - 1.8
21/11:00am 12.6 8.0 12.3 98 0.2 NE 28 48 15 26 - - 1.4
21/10:44am 12.6 7.6 12.3 98 0.2 NE 30 48 16 26 - - 1.4
21/10:30am 12.6 8.8 12.3 98 0.2 NE 24 43 13 23 - - 1.4
21/10:00am 12.6 8.4 12.3 98 0.2 NE 26 37 14 20 - - 1.2
21/09:30am 12.7 8.1 12.2 97 0.3 NE 28 39 15 21 - - 1.0
21/09:00am 12.7 8.4 12.2 97 0.3 NE 26 37 14 20 - - 7.4
21/08:30am 12.8 9.3 12.3 97 0.3 NE 22 30 12 16 - - 7.0
21/08:00am 12.7 9.6 12.2 97 0.3 NE 20 28 11 15 - - 6.8
21/07:30am 12.7 8.8 12.2 97 0.3 NE 24 33 13 18 - - 6.4
21/07:00am 12.5 8.5 11.9 96 0.3 NE 24 39 13 21 - - 6.0
21/06:30am 12.6 9.3 11.7 94 0.5 NE 20 30 11 16 - - 4.0
21/06:00am 12.7 10.3 11.3 91 0.8 NE 15 20 8 11 - - 3.0
21/05:30am 13.2 10.7 10.9 86 1.2 NNE 15 20 8 11 - - 1.4
21/05:00am 14.2 11.9 10.4 78 2.1 NNE 13 20 7 11 - - 0.2
21/04:30am 14.7 12.3 10.1 74 2.5 NNE 13 19 7 10 - - 0.0
21/04:00am 15.3 12.7 9.4 68 3.1 NNE 13 22 7 12 - - 0.0
21/03:30am 15.3 12.3 9.2 67 3.2 NNE 15 24 8 13 - - 0.0
21/03:00am 16.3 12.4 8.8 61 4.0 NNE 19 28 10 15 - - 0.0
21/02:30am 15.9 12.4 8.6 62 3.8 NNE 17 24 9 13 - - 0.0
21/02:00am 16.3 13.2 8.8 61 4.0 NNE 15 20 8 11 - - 0.0
21/01:30am 16.2 12.7 8.9 62 3.9 NE 17 20 9 11 - - 0.0
21/01:00am 16.2 12.4 9.2 63 3.7 NE 19 22 10 12 - - 0.0
21/12:30am 16.7 13.2 8.7 59 4.2 NE 17 22 9 12 - - 0.0
21/12:00am 16.9 12.7 8.3 57 4.5 ENE 20 24 11 13 - - 0.0
 
Date/Time
EST
Temp
°C
App
Temp
°C
Dew
Point
°C
Rel
Hum
%
Delta-T
°C
Wind Press
QNH
hPa
Press
MSL
hPa
Rain since
9am
mm
Dir  Spd
km/h
Gust
km/h
Spd
kts
Gust
kts
20/11:30pm 17.2 13.0 8.4 56 4.7 ENE 20 24 11 13 - - 0.0
20/11:00pm 17.1 12.9 8.3 56 4.6 ENE 20 24 11 13 - - 0.0
20/10:30pm 17.5 12.9 8.1 54 5.0 ENE 22 28 12 15 - - 0.0
20/10:00pm 17.4 12.5 8.3 55 4.8 ENE 24 28 13 15 - - 0.0
20/09:30pm 17.4 12.8 8.3 55 4.8 ENE 22 26 12 14 - - 0.0
20/09:00pm 17.6 12.6 8.2 54 5.0 ENE 24 28 13 15 - - 0.0
20/08:30pm 17.3 13.7 8.4 56 4.7 ENE 17 20 9 11 - - 0.0
20/08:00pm 17.5 13.5 8.9 57 4.6 ENE 20 28 11 15 - - 0.0
20/07:30pm 17.7 13.0 9.1 57 4.6 ENE 24 30 13 16 - - 0.0
20/07:00pm 17.9 13.6 9.3 57 4.6 ENE 22 26 12 14 - - 0.0
20/06:30pm 18.1 13.3 8.9 55 4.9 ENE 24 28 13 15 - - 0.0
20/06:00pm 18.1 14.1 8.9 55 4.9 ENE 20 24 11 13 - - 0.0

Other Formats:

Comma delimited format used in spreadsheet applications
http://www.bom.gov.au/fwo/IDV60801/IDV60801.94881.axf

JavaScript Object Notation format (JSON) in row-major order
http://www.bom.gov.au/fwo/IDV60801/IDV60801.94881.json